Time;durP1;ratioP1;P1;durP2;ratioP2;P2;SDS_P1;SDS_P2;PMS_P1;PMS_P2;Temp;Humidity;BMP_temperature;BMP_pressure;BME280_temperature;BME280_humidity;BME280_pressure;Samples;Min_cycle;Max_cycle;Signal;HPM_P1;HPM_P2
2023/12/03 00:00:07;;;;;;;8.85;5.85;;;-0.40;99.90;;;;;;5054105;28;20051;-66
2023/12/03 00:02:33;;;;;;;10.75;6.20;;;-0.40;99.90;;;;;;5053825;28;20028;-66
2023/12/03 00:04:59;;;;;;;10.70;6.13;;;-0.40;99.90;;;;;;5054147;28;20025;-66
2023/12/03 00:07:26;;;;;;;9.55;6.53;;;-0.50;99.90;;;;;;5053433;28;20350;-66
2023/12/03 00:09:52;;;;;;;8.43;5.97;;;-0.50;99.90;;;;;;5053844;28;20485;-66
2023/12/03 00:12:17;;;;;;;8.88;6.45;;;-0.50;99.90;;;;;;5053560;28;20040;-65
2023/12/03 00:14:43;;;;;;;8.45;5.95;;;-0.50;99.90;;;;;;5053950;28;20413;-66
2023/12/03 00:17:08;;;;;;;10.27;6.18;;;-0.40;99.90;;;;;;5052613;28;20110;-66
2023/12/03 00:19:34;;;;;;;11.68;6.88;;;-0.50;99.90;;;;;;5053413;28;20410;-67
2023/12/03 00:22:00;;;;;;;10.68;7.57;;;-0.50;99.90;;;;;;5053566;28;20028;-66
2023/12/03 00:24:26;;;;;;;10.05;7.22;;;-0.50;99.90;;;;;;5053644;28;20091;-65
2023/12/03 00:26:51;;;;;;;9.73;7.28;;;-0.40;99.90;;;;;;5053730;28;20029;-67
2023/12/03 00:29:17;;;;;;;11.68;8.48;;;-0.40;99.90;;;;;;5052941;28;20021;-71
2023/12/03 00:31:43;;;;;;;13.70;8.63;;;-0.40;99.90;;;;;;5053596;28;20057;-67
2023/12/03 00:34:08;;;;;;;14.45;9.32;;;-0.40;99.90;;;;;;5053360;28;20496;-67
2023/12/03 00:36:34;;;;;;;12.43;8.38;;;-0.40;99.90;;;;;;5052897;28;20032;-66
2023/12/03 00:38:59;;;;;;;14.15;9.43;;;-0.40;99.90;;;;;;5053001;28;20037;-66
2023/12/03 00:41:44;;;;;;;14.73;9.90;;;-0.40;99.90;;;;;;5052551;28;20039;-66
2023/12/03 00:44:10;;;;;;;16.30;10.40;;;-0.40;99.90;;;;;;5053245;28;20040;-65
2023/12/03 00:46:35;;;;;;;16.63;11.43;;;-0.40;99.90;;;;;;5052983;28;20025;-67
2023/12/03 00:49:01;;;;;;;15.80;10.80;;;-0.40;99.90;;;;;;5053214;28;20424;-67
2023/12/03 00:51:26;;;;;;;16.48;11.00;;;-0.40;99.90;;;;;;5052872;28;20021;-66
2023/12/03 00:53:52;;;;;;;16.23;11.20;;;-0.40;99.90;;;;;;5051901;28;20479;-67
2023/12/03 00:56:18;;;;;;;17.42;12.00;;;-0.40;99.90;;;;;;5052857;28;20029;-66
2023/12/03 00:58:43;;;;;;;15.60;11.07;;;-0.30;99.90;;;;;;5052622;28;20033;-67
2023/12/03 01:01:09;;;;;;;16.70;11.73;;;-0.30;99.90;;;;;;5053383;28;20071;-67
2023/12/03 01:03:34;;;;;;;17.00;12.13;;;-0.30;99.90;;;;;;5052696;28;20378;-66
2023/12/03 01:06:00;;;;;;;16.10;12.10;;;-0.30;99.90;;;;;;5052995;28;20025;-66
2023/12/03 01:08:26;;;;;;;17.80;12.38;;;-0.30;99.90;;;;;;5052681;28;20117;-67
2023/12/03 01:10:51;;;;;;;15.77;11.05;;;-0.30;99.90;;;;;;5052747;28;20060;-67
2023/12/03 01:13:17;;;;;;;17.60;12.82;;;-0.30;99.90;;;;;;5052939;28;20139;-67
2023/12/03 01:15:48;;;;;;;17.98;11.88;;;-0.20;99.90;;;;;;5052524;28;20040;-67
2023/12/03 01:18:13;;;;;;;17.98;11.70;;;-0.20;99.90;;;;;;5052479;28;20066;-66
2023/12/03 01:20:39;;;;;;;17.17;11.65;;;-0.20;99.90;;;;;;5052103;28;20056;-66
2023/12/03 01:23:05;;;;;;;17.65;12.15;;;-0.30;99.90;;;;;;5053015;28;20472;-66
2023/12/03 01:25:30;;;;;;;19.67;13.13;;;-0.30;99.90;;;;;;5052160;28;20485;-67
2023/12/03 01:27:56;;;;;;;16.85;11.80;;;-0.30;99.90;;;;;;5052710;28;20025;-66
2023/12/03 01:30:22;;;;;;;18.83;12.98;;;-0.30;99.90;;;;;;5052293;28;20045;-70
2023/12/03 01:32:48;;;;;;;16.58;12.40;;;-0.30;99.90;;;;;;5052504;28;20107;-66
2023/12/03 01:35:14;;;;;;;18.38;12.80;;;-0.30;99.90;;;;;;5052656;28;20025;-66
2023/12/03 01:37:39;;;;;;;19.05;11.98;;;-0.30;99.90;;;;;;5050966;28;20029;-66
2023/12/03 01:40:06;;;;;;;16.30;11.57;;;-0.30;99.90;;;;;;5052276;28;20048;-67
2023/12/03 01:42:33;;;;;;;17.90;12.60;;;-0.30;99.90;;;;;;5051816;28;20098;-67
2023/12/03 01:44:59;;;;;;;17.10;11.63;;;-0.30;99.90;;;;;;5052208;28;20029;-66
2023/12/03 01:47:24;;;;;;;13.30;9.02;;;-0.30;99.90;;;;;;5051855;28;20367;-66
2023/12/03 01:49:50;;;;;;;12.65;8.88;;;-0.30;99.90;;;;;;5052501;28;20021;-67
2023/12/03 01:52:16;;;;;;;13.00;9.45;;;-0.30;99.90;;;;;;5054324;28;20526;-66
2023/12/03 01:54:45;;;;;;;14.32;10.05;;;-0.40;99.90;;;;;;5056166;28;20453;-67
2023/12/03 01:57:10;;;;;;;12.32;8.07;;;-0.40;99.90;;;;;;5056228;28;20040;-66
2023/12/03 01:59:36;;;;;;;13.63;8.15;;;-0.40;99.90;;;;;;5056173;28;20048;-67
2023/12/03 02:02:05;;;;;;;10.43;7.82;;;-0.40;99.90;;;;;;5056452;28;20025;-66
2023/12/03 02:04:31;;;;;;;11.02;7.13;;;-0.40;99.90;;;;;;5055698;28;20390;-67
2023/12/03 02:06:56;;;;;;;12.07;7.22;;;-0.50;99.90;;;;;;5056344;28;20025;-67
2023/12/03 02:09:23;;;;;;;11.15;7.43;;;-0.50;99.90;;;;;;5056418;28;20037;-67
2023/12/03 02:11:49;;;;;;;9.63;6.82;;;-0.50;99.90;;;;;;5055634;28;20544;-67
2023/12/03 02:14:15;;;;;;;10.50;6.70;;;-0.50;99.90;;;;;;5056013;28;20028;-67
2023/12/03 02:16:47;;;;;;;10.85;6.53;;;-0.60;99.90;;;;;;5054616;28;20125;-67
2023/12/03 02:19:14;;;;;;;9.20;6.47;;;-0.60;99.90;;;;;;5056061;28;20064;-66
2023/12/03 02:21:39;;;;;;;10.25;7.00;;;-0.60;99.90;;;;;;5055670;28;20033;-65
2023/12/03 02:24:05;;;;;;;10.70;7.28;;;-0.60;99.90;;;;;;5055836;28;20432;-66
2023/12/03 02:26:31;;;;;;;9.93;6.75;;;-0.70;99.90;;;;;;5055606;28;20039;-66
2023/12/03 02:28:56;;;;;;;10.98;6.43;;;-0.70;99.90;;;;;;5056307;28;20036;-66
2023/12/03 02:31:22;;;;;;;10.18;6.97;;;-0.70;99.90;;;;;;5055557;28;20385;-66
2023/12/03 02:34:04;;;;;;;10.98;6.95;;;-0.70;99.90;;;;;;5055407;28;20025;-65
2023/12/03 02:36:29;;;;;;;9.73;6.93;;;-0.70;99.90;;;;;;5055392;28;20086;-66
2023/12/03 02:38:55;;;;;;;9.95;6.95;;;-0.70;99.90;;;;;;5055452;28;20041;-66
2023/12/03 02:41:21;;;;;;;10.00;7.10;;;-0.70;99.90;;;;;;5055794;28;20037;-67
2023/12/03 02:43:46;;;;;;;9.30;6.25;;;-0.70;99.90;;;;;;5055046;28;20037;-67
2023/12/03 02:46:12;;;;;;;10.77;7.75;;;-0.70;99.90;;;;;;5054414;28;20112;-67
2023/12/03 02:48:37;;;;;;;10.85;7.45;;;-0.70;99.90;;;;;;5054958;28;20108;-65
2023/12/03 02:51:03;;;;;;;10.90;7.22;;;-0.70;99.90;;;;;;5055602;28;20029;-66
2023/12/03 02:53:29;;;;;;;9.07;6.22;;;-0.70;99.90;;;;;;5055118;28;20385;-65
2023/12/03 02:55:54;;;;;;;9.50;6.50;;;-0.70;99.90;;;;;;5055233;28;20028;-66
2023/12/03 02:58:21;;;;;;;9.60;6.43;;;-0.70;99.90;;;;;;5055303;28;20025;-67
2023/12/03 03:00:47;;;;;;;10.85;7.45;;;-0.70;99.90;;;;;;5054539;28;20049;-66
2023/12/03 03:03:12;;;;;;;10.45;7.45;;;-0.70;99.90;;;;;;5054897;28;20029;-66
2023/12/03 03:05:38;;;;;;;11.20;7.20;;;-0.70;99.90;;;;;;5054817;28;20029;-66
2023/12/03 03:08:03;;;;;;;12.43;8.07;;;-0.70;99.90;;;;;;5054977;28;20108;-66
2023/12/03 03:10:29;;;;;;;11.50;8.32;;;-0.70;99.90;;;;;;5053533;28;20029;-70
2023/12/03 03:12:55;;;;;;;10.77;7.88;;;-0.70;99.90;;;;;;5054575;28;20051;-66
2023/12/03 03:15:20;;;;;;;12.57;8.35;;;-0.70;99.90;;;;;;5054813;28;20523;-66
2023/12/03 03:17:46;;;;;;;12.02;8.98;;;-0.70;99.90;;;;;;5054242;28;20144;-66
2023/12/03 03:20:11;;;;;;;12.23;8.48;;;-0.70;99.90;;;;;;5054954;28;20115;-66
2023/12/03 03:22:37;;;;;;;14.02;9.48;;;-0.70;99.90;;;;;;5054291;28;20025;-66
2023/12/03 03:25:03;;;;;;;12.32;9.07;;;-0.70;99.90;;;;;;5054659;28;20382;-66
2023/12/03 03:27:29;;;;;;;12.70;9.30;;;-0.70;99.90;;;;;;5054832;28;20099;-66
2023/12/03 03:29:54;;;;;;;14.10;9.93;;;-0.70;99.90;;;;;;5054378;28;20430;-67
2023/12/03 03:32:20;;;;;;;14.02;9.40;;;-0.70;99.90;;;;;;5054716;28;20025;-65
2023/12/03 03:34:46;;;;;;;11.40;8.80;;;-0.70;99.90;;;;;;5054308;28;20025;-67
2023/12/03 03:37:12;;;;;;;11.32;8.90;;;-0.80;99.90;;;;;;5054670;28;20397;-66
2023/12/03 03:39:37;;;;;;;12.15;8.82;;;-0.80;99.90;;;;;;5054113;28;20037;-67
2023/12/03 03:42:03;;;;;;;12.55;9.32;;;-0.80;99.90;;;;;;5054895;28;20029;-67
2023/12/03 03:44:29;;;;;;;12.80;9.27;;;-0.80;99.90;;;;;;5054438;28;20109;-65
2023/12/03 03:46:54;;;;;;;11.98;9.30;;;-0.90;99.90;;;;;;5053790;28;20118;-66
2023/12/03 03:49:20;;;;;;;13.88;9.77;;;-0.90;99.90;;;;;;5053936;28;20036;-67
2023/12/03 03:51:46;;;;;;;12.52;9.15;;;-1.00;99.90;;;;;;5053951;28;20025;-67
2023/12/03 03:54:12;;;;;;;12.02;9.50;;;-1.00;99.90;;;;;;5053086;28;20036;-66
2023/12/03 03:56:37;;;;;;;12.55;9.05;;;-1.00;99.90;;;;;;5053926;28;20367;-67
2023/12/03 03:59:03;;;;;;;12.00;9.18;;;-1.10;99.90;;;;;;5053743;28;20083;-67
2023/12/03 04:01:29;;;;;;;11.30;8.25;;;-1.10;99.90;;;;;;5054273;28;20079;-66
2023/12/03 04:03:54;;;;;;;11.43;8.50;;;-1.10;99.90;;;;;;5052519;28;20052;-65
2023/12/03 04:06:20;;;;;;;12.15;9.27;;;-1.20;99.90;;;;;;5054113;28;20458;-66
2023/12/03 04:08:46;;;;;;;12.13;9.32;;;-1.20;99.90;;;;;;5053895;28;20029;-66
2023/12/03 04:11:11;;;;;;;12.30;9.50;;;-1.30;99.90;;;;;;5053909;28;20465;-67
2023/12/03 04:13:37;;;;;;;12.25;9.48;;;-1.30;99.90;;;;;;5053551;28;20025;-67
2023/12/03 04:16:03;;;;;;;11.57;8.27;;;-1.30;99.90;;;;;;5053236;28;20056;-65
2023/12/03 04:18:29;;;;;;;11.32;8.85;;;-1.30;99.90;;;;;;5053824;28;20037;-66
2023/12/03 04:20:54;;;;;;;11.73;9.25;;;-1.30;99.90;;;;;;5053451;28;20430;-66
2023/12/03 04:23:20;;;;;;;11.80;8.80;;;-1.40;99.90;;;;;;5053265;28;20021;-67
2023/12/03 04:25:46;;;;;;;13.57;9.38;;;-1.40;99.90;;;;;;5053095;28;20377;-67
2023/12/03 04:28:11;;;;;;;12.02;9.30;;;-1.40;99.90;;;;;;5053708;28;20090;-68
2023/12/03 04:30:37;;;;;;;12.02;9.15;;;-1.40;99.90;;;;;;5053121;28;20505;-66
2023/12/03 04:33:02;;;;;;;12.13;9.40;;;-1.50;99.90;;;;;;5053906;28;20029;-66
2023/12/03 04:35:28;;;;;;;12.05;9.57;;;-1.50;99.90;;;;;;5053640;28;20141;-66
2023/12/03 04:37:54;;;;;;;13.40;9.75;;;-1.50;99.90;;;;;;5052808;28;20515;-65
2023/12/03 04:40:19;;;;;;;12.05;9.32;;;-1.50;99.90;;;;;;5053588;28;20029;-66
2023/12/03 04:42:45;;;;;;;12.75;10.07;;;-1.50;99.90;;;;;;5053034;28;20032;-66
2023/12/03 04:45:11;;;;;;;10.93;8.98;;;-1.50;99.90;;;;;;5053625;28;20488;-67
2023/12/03 04:47:36;;;;;;;11.73;9.38;;;-1.50;99.90;;;;;;5053306;28;20031;-71
2023/12/03 04:50:02;;;;;;;11.48;8.75;;;-1.50;99.90;;;;;;5053278;28;20407;-66
2023/12/03 04:52:28;;;;;;;11.63;9.15;;;-1.60;99.90;;;;;;5053371;28;20032;-67
2023/12/03 04:54:53;;;;;;;12.65;9.07;;;-1.60;99.90;;;;;;5052661;28;20029;-67
2023/12/03 04:57:19;;;;;;;11.52;8.82;;;-1.50;99.90;;;;;;5053096;28;20143;-67
2023/12/03 04:59:44;;;;;;;12.43;9.73;;;-1.60;99.90;;;;;;5052407;28;20116;-67
2023/12/03 05:02:10;;;;;;;12.65;9.38;;;-1.60;99.90;;;;;;5053438;28;20036;-67
2023/12/03 05:04:36;;;;;;;12.95;10.02;;;-1.60;99.90;;;;;;5052465;28;20076;-66
2023/12/03 05:07:01;;;;;;;13.25;10.10;;;-1.60;99.90;;;;;;5052634;28;20033;-67
2023/12/03 05:09:27;;;;;;;14.32;9.85;;;-1.60;99.90;;;;;;5052955;28;20039;-67
2023/12/03 05:11:53;;;;;;;13.80;9.95;;;-1.60;99.90;;;;;;5052332;28;20488;-66
2023/12/03 05:14:18;;;;;;;11.63;9.00;;;-1.60;99.90;;;;;;5052919;28;20075;-65
2023/12/03 05:16:44;;;;;;;13.50;9.32;;;-1.60;99.90;;;;;;5052182;28;20021;-66
2023/12/03 05:19:09;;;;;;;11.77;9.15;;;-1.60;99.90;;;;;;5053007;28;20478;-66
2023/12/03 05:21:35;;;;;;;11.75;8.68;;;-1.50;99.90;;;;;;5052512;28;20025;-66
2023/12/03 05:24:01;;;;;;;11.82;9.05;;;-1.50;99.90;;;;;;5052056;28;20528;-66
2023/12/03 05:26:26;;;;;;;11.40;8.50;;;-1.50;99.90;;;;;;5052714;28;20071;-66
2023/12/03 05:28:52;;;;;;;11.05;8.68;;;-1.50;99.90;;;;;;5052363;28;20357;-65
2023/12/03 05:31:17;;;;;;;13.88;9.38;;;-1.50;99.90;;;;;;5052492;28;20021;-66
2023/12/03 05:33:43;;;;;;;12.50;9.75;;;-1.50;99.90;;;;;;5052322;28;20405;-66
2023/12/03 05:36:18;;;;;;;12.02;8.77;;;-1.50;99.90;;;;;;5052666;28;20029;-66
2023/12/03 05:38:44;;;;;;;12.02;9.30;;;-1.50;99.90;;;;;;5052272;28;20051;-65
2023/12/03 05:41:09;;;;;;;11.18;9.18;;;-1.50;99.90;;;;;;5051517;28;20025;-65
2023/12/03 05:43:35;;;;;;;12.55;8.65;;;-1.40;99.90;;;;;;5050929;28;20033;-67
2023/12/03 05:46:00;;;;;;;10.73;8.55;;;-1.40;99.90;;;;;;5051893;28;20025;-67
2023/12/03 05:48:26;;;;;;;11.98;8.45;;;-1.40;99.90;;;;;;5052266;28;20028;-67
2023/12/03 05:50:51;;;;;;;10.50;8.27;;;-1.40;99.90;;;;;;5051863;28;20040;-66
2023/12/03 05:53:17;;;;;;;12.27;9.25;;;-1.40;99.90;;;;;;5052472;28;20036;-66
2023/12/03 05:55:43;;;;;;;11.23;8.95;;;-1.40;99.90;;;;;;5051854;28;20108;-68
2023/12/03 05:58:08;;;;;;;10.98;8.52;;;-1.40;99.90;;;;;;5052426;28;20398;-66
2023/12/03 06:00:34;;;;;;;11.75;8.60;;;-1.40;99.90;;;;;;5052552;28;20088;-66
2023/12/03 06:02:59;;;;;;;12.63;9.52;;;-1.40;99.90;;;;;;5051836;28;20029;-67
2023/12/03 06:05:25;;;;;;;13.45;10.32;;;-1.40;99.90;;;;;;5052203;28;20029;-65
2023/12/03 06:07:51;;;;;;;11.13;8.50;;;-1.40;99.90;;;;;;5051988;28;20068;-66
2023/12/03 06:10:16;;;;;;;13.23;10.05;;;-1.40;99.90;;;;;;5052229;28;20052;-66
2023/12/03 06:12:42;;;;;;;11.73;9.25;;;-1.40;99.90;;;;;;5051051;28;20112;-66
2023/12/03 06:15:08;;;;;;;12.25;9.32;;;-1.40;99.90;;;;;;5051976;28;20118;-67
2023/12/03 06:17:34;;;;;;;12.23;9.40;;;-1.50;99.90;;;;;;5052288;28;20044;-66
2023/12/03 06:20:00;;;;;;;13.52;9.57;;;-1.40;99.90;;;;;;5051464;28;20462;-66
2023/12/03 06:22:25;;;;;;;11.07;8.30;;;-1.40;99.90;;;;;;5051901;28;20025;-66
2023/12/03 06:24:51;;;;;;;12.10;9.43;;;-1.40;99.90;;;;;;5052108;28;20040;-66
2023/12/03 06:27:16;;;;;;;11.98;8.95;;;-1.50;99.90;;;;;;5051402;28;20025;-66
2023/12/03 06:29:42;;;;;;;12.85;10.05;;;-1.40;99.90;;;;;;5051992;28;20056;-66
2023/12/03 06:32:08;;;;;;;13.90;10.48;;;-1.50;99.90;;;;;;5051718;28;20060;-66
2023/12/03 06:34:33;;;;;;;17.17;9.75;;;-1.40;99.90;;;;;;5052153;28;20093;-66
2023/12/03 06:36:59;;;;;;;13.25;9.93;;;-1.40;99.90;;;;;;5051730;28;20485;-66
2023/12/03 06:39:25;;;;;;;13.32;10.05;;;-1.40;99.90;;;;;;5057296;28;20048;-66
2023/12/03 06:41:51;;;;;;;14.50;9.68;;;-1.40;99.90;;;;;;5057203;28;20025;-67
2023/12/03 06:44:16;;;;;;;12.98;10.38;;;-1.40;99.90;;;;;;5057468;28;20028;-66
2023/12/03 06:46:42;;;;;;;13.98;10.18;;;-1.40;99.90;;;;;;5055979;28;20033;-66
2023/12/03 06:49:09;;;;;;;14.07;10.60;;;-1.40;99.90;;;;;;5056759;28;20032;-66
2023/12/03 06:51:34;;;;;;;12.90;9.90;;;-1.40;99.90;;;;;;5057407;28;20024;-66
2023/12/03 06:54:02;;;;;;;12.60;9.90;;;-1.40;99.90;;;;;;5055899;28;20021;-66
2023/12/03 06:56:27;;;;;;;12.27;9.40;;;-1.40;99.90;;;;;;5055353;28;20520;-66
2023/12/03 06:58:53;;;;;;;17.25;10.40;;;-1.50;99.90;;;;;;5055160;28;20033;-66
2023/12/03 07:01:18;;;;;;;14.45;10.43;;;-1.50;99.90;;;;;;5055984;28;20102;-67
2023/12/03 07:03:44;;;;;;;12.38;9.90;;;-1.50;99.90;;;;;;5055557;28;20381;-66
2023/12/03 07:06:12;;;;;;;13.88;10.98;;;-1.50;99.90;;;;;;5054936;28;20032;-66
2023/12/03 07:08:38;;;;;;;13.70;10.32;;;-1.50;99.90;;;;;;5055220;28;20036;-67
2023/12/03 07:11:04;;;;;;;12.50;9.88;;;-1.50;99.90;;;;;;5054094;28;20020;-67
2023/12/03 07:13:29;;;;;;;15.43;10.07;;;-1.50;99.90;;;;;;5054988;28;20032;-66
2023/12/03 07:15:55;;;;;;;11.02;9.05;;;-1.50;99.90;;;;;;5054679;28;20037;-66
2023/12/03 07:18:21;;;;;;;14.48;10.30;;;-1.50;99.90;;;;;;5054729;28;20040;-66
2023/12/03 07:20:46;;;;;;;14.65;10.25;;;-1.50;99.90;;;;;;5055112;28;20025;-66
2023/12/03 07:23:12;;;;;;;14.88;11.02;;;-1.50;99.90;;;;;;5054668;28;20036;-67
2023/12/03 07:25:37;;;;;;;15.13;10.63;;;-1.50;99.90;;;;;;5054886;28;20025;-67
2023/12/03 07:28:03;;;;;;;11.68;9.50;;;-1.40;99.90;;;;;;5054277;28;20104;-67
2023/12/03 07:30:29;;;;;;;12.23;10.18;;;-1.40;99.90;;;;;;5054900;28;20090;-67
2023/12/03 07:32:54;;;;;;;14.35;10.60;;;-1.40;99.90;;;;;;5054485;28;20017;-66
2023/12/03 07:35:20;;;;;;;13.25;10.15;;;-1.30;99.90;;;;;;5054564;28;20496;-66
2023/12/03 07:37:45;;;;;;;14.20;10.95;;;-1.40;99.90;;;;;;5054824;28;20041;-67
2023/12/03 07:40:11;;;;;;;15.18;10.30;;;-1.30;99.90;;;;;;5054364;28;20418;-67
2023/12/03 07:42:37;;;;;;;12.77;9.48;;;-1.30;99.90;;;;;;5055034;28;20466;-66
2023/12/03 07:45:03;;;;;;;12.77;9.85;;;-1.30;99.90;;;;;;5054338;28;20446;-66
2023/12/03 07:47:29;;;;;;;12.90;9.88;;;-1.30;99.90;;;;;;5054596;28;20025;-66
2023/12/03 07:49:55;;;;;;;13.98;10.60;;;-1.30;99.90;;;;;;5052925;28;20021;-66
2023/12/03 07:52:21;;;;;;;12.10;9.63;;;-1.30;99.90;;;;;;5054531;28;20458;-66
2023/12/03 07:54:46;;;;;;;13.48;9.98;;;-1.30;99.90;;;;;;5054454;28;20446;-66
2023/12/03 07:57:12;;;;;;;11.90;9.38;;;-1.20;99.90;;;;;;5054036;28;20053;-66
2023/12/03 07:59:39;;;;;;;14.05;9.88;;;-1.10;99.90;;;;;;5053837;28;20049;-66
2023/12/03 08:02:08;;;;;;;12.80;9.15;;;-1.00;99.90;;;;;;5053879;28;20104;-66
2023/12/03 08:04:33;;;;;;;13.10;10.10;;;-1.00;99.90;;;;;;5054305;28;20029;-66
2023/12/03 08:06:59;;;;;;;13.00;10.07;;;-0.90;99.90;;;;;;5053503;28;20108;-66
2023/12/03 08:09:25;;;;;;;12.05;9.00;;;-0.90;99.90;;;;;;5054107;28;20037;-66
2023/12/03 08:11:50;;;;;;;10.95;9.07;;;-0.80;99.90;;;;;;5053008;28;20025;-67
2023/12/03 08:14:16;;;;;;;12.27;9.25;;;-0.80;99.90;;;;;;5054167;28;20054;-67
2023/12/03 08:16:42;;;;;;;12.38;9.55;;;-0.70;99.90;;;;;;5053978;28;20079;-67
2023/12/03 08:19:08;;;;;;;11.30;8.60;;;-0.70;99.90;;;;;;5053394;28;20047;-67
2023/12/03 08:21:36;;;;;;;12.25;9.10;;;-0.70;99.90;;;;;;5054274;28;20123;-66
2023/12/03 08:24:03;;;;;;;13.27;8.75;;;-0.70;99.90;;;;;;5052095;28;20040;-67
2023/12/03 08:26:28;;;;;;;13.75;9.55;;;-0.70;99.90;;;;;;5053373;28;20026;-67
2023/12/03 08:28:54;;;;;;;13.32;9.48;;;-0.70;99.90;;;;;;5052215;28;20025;-66
2023/12/03 08:31:22;;;;;;;12.48;9.68;;;-0.60;99.90;;;;;;5053809;28;20029;-66
2023/12/03 08:33:48;;;;;;;12.82;10.10;;;-0.60;99.90;;;;;;5053672;28;20091;-66
2023/12/03 08:36:18;;;;;;;13.85;10.15;;;-0.60;99.90;;;;;;5052351;28;20436;-66
2023/12/03 08:38:43;;;;;;;13.60;10.43;;;-0.60;99.90;;;;;;5052999;28;20033;-66
2023/12/03 08:41:09;;;;;;;11.88;9.50;;;-0.50;99.90;;;;;;5053142;28;20035;-66
2023/12/03 08:43:35;;;;;;;12.48;9.57;;;-0.50;99.90;;;;;;5053451;28;20095;-66
2023/12/03 08:46:00;;;;;;;12.75;9.70;;;-0.40;99.90;;;;;;5052666;28;20029;-66
2023/12/03 08:48:26;;;;;;;12.27;9.25;;;-0.40;99.90;;;;;;5053127;28;20033;-66
2023/12/03 08:50:51;;;;;;;13.57;10.25;;;-0.50;99.80;;;;;;5053309;28;20036;-66
2023/12/03 08:53:17;;;;;;;11.80;8.35;;;-0.50;99.70;;;;;;5052974;28;20029;-66
2023/12/03 08:55:43;;;;;;;11.82;8.73;;;-0.50;99.30;;;;;;5053347;28;20438;-65
2023/12/03 08:58:09;;;;;;;13.55;9.20;;;-0.60;99.40;;;;;;5052792;28;20063;-66
2023/12/03 09:00:34;;;;;;;14.63;9.77;;;-0.60;99.50;;;;;;5052945;28;20091;-66
2023/12/03 09:03:00;;;;;;;11.63;9.02;;;-0.70;99.50;;;;;;5052808;28;20017;-66
2023/12/03 09:05:25;;;;;;;14.05;9.68;;;-0.70;99.80;;;;;;5053030;28;20021;-67
2023/12/03 09:07:51;;;;;;;12.52;9.35;;;-0.70;99.90;;;;;;5052996;28;20206;-67
2023/12/03 09:10:17;;;;;;;12.02;8.50;;;-0.60;99.90;;;;;;5052497;28;20059;-67
2023/12/03 09:12:42;;;;;;;11.02;7.82;;;-0.60;99.70;;;;;;5052609;28;20021;-67
2023/12/03 09:15:09;;;;;;;9.73;8.05;;;-0.60;99.20;;;;;;5052460;28;20378;-67
2023/12/03 09:17:34;;;;;;;10.88;8.20;;;-0.60;99.20;;;;;;5052800;28;20488;-67
2023/12/03 09:20:00;;;;;;;10.30;7.93;;;-0.60;99.30;;;;;;5052418;28;20082;-67
2023/12/03 09:22:25;;;;;;;13.77;7.97;;;-0.60;99.20;;;;;;5052848;28;20086;-66
2023/12/03 09:24:51;;;;;;;9.80;7.90;;;-0.70;99.00;;;;;;5052467;28;20035;-67
2023/12/03 09:27:17;;;;;;;11.20;8.68;;;-0.60;99.10;;;;;;5052411;28;20025;-67
2023/12/03 09:29:42;;;;;;;10.07;7.95;;;-0.70;99.10;;;;;;5052653;28;20029;-67
2023/12/03 09:32:08;;;;;;;11.23;8.20;;;-0.60;99.20;;;;;;5052438;28;20088;-67
2023/12/03 09:34:34;;;;;;;10.63;8.05;;;-0.60;99.30;;;;;;5052497;28;20025;-66
2023/12/03 09:37:00;;;;;;;9.80;7.57;;;-0.50;99.40;;;;;;5052123;28;20100;-68
2023/12/03 09:39:26;;;;;;;9.15;6.75;;;-0.50;98.90;;;;;;5052459;28;20396;-67
2023/12/03 09:41:53;;;;;;;11.25;7.43;;;-0.40;98.60;;;;;;5052347;28;20025;-66
2023/12/03 09:44:33;;;;;;;9.57;7.30;;;-0.40;98.20;;;;;;5052021;28;20070;-66
2023/12/03 09:46:59;;;;;;;8.25;6.85;;;-0.40;98.10;;;;;;5052270;28;20036;-73
2023/12/03 09:49:28;;;;;;;7.85;6.15;;;-0.30;98.00;;;;;;5052450;28;20064;-66
2023/12/03 09:51:59;;;;;;;8.90;6.65;;;-0.30;97.90;;;;;;5052471;28;20166;-66
2023/12/03 09:54:25;;;;;;;8.37;6.93;;;-0.30;97.70;;;;;;5052644;28;20025;-65
2023/12/03 09:56:55;;;;;;;9.55;6.60;;;-0.30;97.70;;;;;;5052500;28;20033;-66
2023/12/03 09:59:21;;;;;;;8.80;5.95;;;-0.20;97.60;;;;;;5051752;28;20051;-67
2023/12/03 10:01:48;;;;;;;9.45;6.95;;;-0.10;97.30;;;;;;5052298;28;20029;-66
2023/12/03 10:04:14;;;;;;;8.98;6.45;;;0.00;97.90;;;;;;5052010;28;20025;-67
2023/12/03 10:06:45;;;;;;;8.10;5.93;;;0.00;97.80;;;;;;5052431;28;20083;-67
2023/12/03 10:09:13;;;;;;;8.88;6.43;;;0.00;97.50;;;;;;5051976;28;20054;-67
2023/12/03 10:11:40;;;;;;;11.10;6.13;;;-0.10;97.40;;;;;;5052192;28;20029;-66
2023/12/03 10:14:10;;;;;;;7.32;5.90;;;-0.20;97.70;;;;;;5054910;28;20083;-67
2023/12/03 10:16:37;;;;;;;12.75;6.60;;;-0.20;97.50;;;;;;5056105;28;20032;-67
2023/12/03 10:19:03;;;;;;;9.25;6.57;;;-0.30;98.10;;;;;;5055528;28;20044;-68
2023/12/03 10:21:28;;;;;;;8.70;6.53;;;-0.40;97.90;;;;;;5056270;28;20033;-66
2023/12/03 10:24:03;;;;;;;9.82;7.03;;;-0.30;97.90;;;;;;5056125;28;20074;-66
2023/12/03 10:26:29;;;;;;;7.18;6.18;;;-0.40;97.60;;;;;;5054721;28;20061;-67
2023/12/03 10:28:54;;;;;;;10.05;6.32;;;-0.30;97.20;;;;;;5056061;28;20059;-66
2023/12/03 10:31:20;;;;;;;8.23;6.10;;;-0.20;97.30;;;;;;5054873;28;20040;-67
2023/12/03 10:33:46;;;;;;;9.70;6.60;;;-0.10;97.30;;;;;;5055999;28;20028;-66
2023/12/03 10:36:12;;;;;;;9.27;6.75;;;0.00;97.00;;;;;;5055629;28;20104;-67
2023/12/03 10:38:43;;;;;;;8.00;6.65;;;0.00;96.00;;;;;;5055308;28;20029;-66
2023/12/03 10:41:13;;;;;;;8.05;6.40;;;0.10;96.00;;;;;;5054197;28;20036;-67
2023/12/03 10:43:41;;;;;;;9.45;6.90;;;0.10;95.50;;;;;;5055707;28;20029;-66
2023/12/03 10:46:11;;;;;;;9.57;7.25;;;0.00;95.30;;;;;;5055324;28;20032;-67
2023/12/03 10:48:37;;;;;;;9.60;6.75;;;-0.10;95.60;;;;;;5056055;28;20040;-66
2023/12/03 10:51:05;;;;;;;10.80;7.25;;;-0.10;95.80;;;;;;5055108;28;20033;-71
2023/12/03 10:53:35;;;;;;;8.85;6.85;;;-0.10;95.70;;;;;;5055296;28;20441;-67
2023/12/03 10:56:03;;;;;;;9.98;6.97;;;-0.20;95.80;;;;;;5055991;28;20347;-66
2023/12/03 10:58:31;;;;;;;10.30;7.68;;;-0.20;95.70;;;;;;5055247;28;20029;-66
2023/12/03 11:01:18;;;;;;;10.05;7.50;;;-0.10;95.70;;;;;;5055151;28;20091;-66
2023/12/03 11:04:08;;;;;;;10.65;7.35;;;-0.10;95.60;;;;;;5055097;28;20487;-66
2023/12/03 11:06:35;;;;;;;10.70;7.60;;;-0.10;95.60;;;;;;5055167;28;20029;-66
2023/12/03 11:09:01;;;;;;;10.35;8.23;;;-0.10;95.50;;;;;;5055074;28;20040;-66
2023/12/03 11:11:28;;;;;;;8.27;7.00;;;-0.10;95.60;;;;;;5054869;28;20378;-67
2023/12/03 11:13:57;;;;;;;9.80;7.47;;;-0.10;95.60;;;;;;5054864;28;20098;-67
2023/12/03 11:16:27;;;;;;;9.30;7.15;;;-0.10;95.10;;;;;;5054741;28;20033;-66
2023/12/03 11:19:06;;;;;;;9.03;7.43;;;-0.20;95.00;;;;;;5054696;28;20108;-66
2023/12/03 11:21:50;;;;;;;9.65;7.50;;;-0.30;95.40;;;;;;5055101;28;20457;-67
2023/12/03 11:24:46;;;;;;;9.85;7.93;;;-0.20;95.90;;;;;;5054377;28;20037;-66
2023/12/03 11:27:11;;;;;;;10.05;7.28;;;-0.20;95.80;;;;;;5054573;28;20559;-67
2023/12/03 11:29:50;;;;;;;8.73;7.70;;;-0.10;95.50;;;;;;5054435;28;20032;-66
2023/12/03 11:32:17;;;;;;;10.38;8.20;;;0.00;95.10;;;;;;5054413;28;20025;-67
2023/12/03 11:34:43;;;;;;;9.75;7.18;;;0.10;94.90;;;;;;5054660;28;20039;-66
2023/12/03 11:37:11;;;;;;;10.07;7.63;;;0.20;94.60;;;;;;5054300;28;20096;-67
2023/12/03 11:39:42;;;;;;;11.27;7.68;;;0.30;94.50;;;;;;5054541;28;20041;-67
2023/12/03 11:42:12;;;;;;;11.75;8.48;;;0.40;94.20;;;;;;5054157;28;20083;-67
2023/12/03 11:44:38;;;;;;;10.70;7.75;;;0.50;93.60;;;;;;5054675;28;20025;-67
2023/12/03 11:47:06;;;;;;;9.52;6.95;;;0.50;93.70;;;;;;5054507;28;20021;-67
2023/12/03 11:49:36;;;;;;;10.27;7.43;;;0.60;93.60;;;;;;5054221;28;20040;-66
2023/12/03 11:52:03;;;;;;;9.80;7.28;;;0.60;93.30;;;;;;5054586;28;20516;-67
2023/12/03 11:54:37;;;;;;;15.40;8.13;;;0.60;92.90;;;;;;5053995;28;20033;-66
2023/12/03 11:57:02;;;;;;;9.38;7.22;;;0.60;92.10;;;;;;5054551;28;20121;-66
2023/12/03 11:59:28;;;;;;;11.18;7.60;;;0.60;92.50;;;;;;5053681;28;20493;-66
2023/12/03 12:01:53;;;;;;;8.52;6.57;;;0.60;92.60;;;;;;5053010;28;20116;-65
2023/12/03 12:04:23;;;;;;;9.70;7.30;;;0.70;92.40;;;;;;5052703;28;20036;-66
2023/12/03 12:06:52;;;;;;;10.27;6.95;;;0.60;92.40;;;;;;5053729;28;20032;-68
2023/12/03 12:09:24;;;;;;;8.57;6.88;;;0.60;92.40;;;;;;5053987;28;20074;-67
2023/12/03 12:11:50;;;;;;;9.13;7.20;;;0.60;92.40;;;;;;5054232;28;20025;-66
2023/12/03 12:14:19;;;;;;;10.30;7.97;;;0.50;92.10;;;;;;5053526;28;20029;-67
2023/12/03 12:16:45;;;;;;;9.32;7.55;;;0.50;92.10;;;;;;5053982;28;20052;-67
2023/12/03 12:19:12;;;;;;;13.13;7.78;;;0.40;92.10;;;;;;5053486;28;20032;-68
2023/12/03 12:21:56;;;;;;;10.00;7.68;;;0.30;94.10;;;;;;5053849;28;20500;-67
2023/12/03 12:24:23;;;;;;;9.63;7.60;;;0.30;94.70;;;;;;5052464;28;20497;-66
2023/12/03 12:26:50;;;;;;;12.35;8.48;;;0.20;94.50;;;;;;5053885;28;20029;-66
2023/12/03 12:29:16;;;;;;;10.18;8.15;;;0.20;94.30;;;;;;5053453;28;20032;-65
2023/12/03 12:31:43;;;;;;;11.45;8.77;;;0.20;94.20;;;;;;5054076;28;20036;-67
2023/12/03 12:34:10;;;;;;;10.13;8.18;;;0.10;93.90;;;;;;5053653;28;20029;-67